• Join FlightAware (Why Join?)
  • Login
  • US Flag 
03:55AM EST


 

Airport Tracker/Info


-or-


 

Live Flight TrackerFlight Track Log ✈ DAL1355 ✈ 01-May-2013 ✈ KRNO - KSLC

Flight Track Log - Related Links

Times and Time Zones

All times are in EDT time to prevent confusion due to time zone crossing. See the DAL1355 flight status page for this flight to view local times or setup timezone preferences in your user account.

Time Position Orientation Groundspeed Altitude Reporting Facility
EDT Latitude Longitude Course Direction KTS MPH feet Rate Location/Type
03:46PM 39.4500 -119.7667 179° South 160 184 7,400  Level Northern Cal TRACON
03:47PM 39.4000 -119.7667 180° South 173 199 9,400 1,500 Climbing Northern Cal TRACON
03:48PM 39.4000 -119.7167 90° East 196 226 10,500 1,200 Climbing Northern Cal TRACON
03:49PM 39.7902 -119.2029 57° Northeast  Level FlightAware Approximate
03:49PM 39.4500 -119.6500 46° Northeast 281 323 11,800  Level Northern Cal TRACON
03:49PM 39.4858 -119.5833 55° Northeast 297 342 12,700 2,580 Climbing Oakland Center
03:50PM 39.8632 -119.0570 57° Northeast  Level FlightAware Approximate
03:50PM 39.5600 -119.4653 51° Northeast 345 397 16,600  Level Oakland Center
03:51PM 39.9362 -118.9111 57° Northeast  Level FlightAware Approximate
03:51PM 39.6219 -119.3692 50° Northeast 347 399 18,300  Level Oakland Center
03:52PM 39.6931 -119.2594 50° Northeast 390 449 19,700 1,620 Climbing Oakland Center
03:54PM 39.7672 -119.1425 50° Northeast 413 475 21,700 1,860 Climbing Oakland Center
03:55PM 39.8439 -119.0236 50° Northeast 423 487 23,600 1,740 Climbing Oakland Center
03:56PM 39.9217 -118.8989 51° Northeast 436 502 25,300 1,500 Climbing Oakland Center
03:57PM 39.9758 -118.7475 65° Northeast 456 525 26,700 1,320 Climbing Oakland Center
03:58PM 40.0272 -118.5936 66° East 462 532 28,100 1,200 Climbing Oakland Center
03:59PM 40.0803 -118.4364 66° East 467 537 29,200 1,260 Climbing Oakland Center
04:00PM 40.1319 -118.2769 67° East 473 544 30,800 1,500 Climbing Oakland Center
04:01PM 40.1828 -118.1219 67° East 465 535 32,300 1,260 Climbing Oakland Center
04:02PM 40.2342 -117.9667 67° East 464 534 33,400 1,260 Climbing Oakland Center
04:03PM 40.2903 -117.7933 67° East 465 535 34,900 1,320 Climbing Oakland Center
04:03PM 40.3147 -117.7197 66° East 461 531 35,400 900 Climbing Salt Lake Center
04:04PM 40.3611 -117.5750 67° East 452 520 36,300 780 Climbing Salt Lake Center
04:05PM 40.4161 -117.4033 67° East 453 521 37,000 300 Climbing Salt Lake Center
04:06PM 40.4636 -117.2561 67° East 454 522 37,000  Level Salt Lake Center
04:07PM 40.5114 -117.1092 67° East 453 521 37,000  Level Salt Lake Center
04:08PM 40.5611 -116.9303 70° East 460 529 37,000  Level Salt Lake Center
04:09PM 40.5789 -116.7636 82° East 473 544 37,000  Level Salt Lake Center
04:10PM 40.5806 -116.5933 89° East 486 559 37,000  Level Salt Lake Center
04:11PM 40.5036 -116.4122 119° Southeast 510 587 37,000  Level Salt Lake Center
04:12PM 40.4217 -116.2675 127° Southeast 512 589 37,000  Level Salt Lake Center
04:13PM 40.3475 -116.1181 123° Southeast 514 592 37,000  Level Salt Lake Center
04:14PM 40.3425 -115.9236 92° East 481 554 37,000  Level Salt Lake Center
04:15PM 40.3742 -115.7647 75° East 471 542 37,000  Level Salt Lake Center
04:16PM 40.4094 -115.5797 76° East 469 540 37,000  Level Salt Lake Center
04:18PM 40.4375 -115.4222 77° East 466 536 37,000  Level Salt Lake Center
04:19PM 40.4658 -115.2639 77° East 465 535 37,000  Level Salt Lake Center
04:20PM 40.4989 -115.0783 77° East 467 537 37,000  Level Salt Lake Center
04:21PM 40.5289 -114.9189 76° East 468 539 37,000  Level Salt Lake Center
04:22PM 40.5553 -114.7581 78° East 468 539 37,000  Level Salt Lake Center
04:23PM 40.5839 -114.5922 77° East 467 537 37,000  Level Salt Lake Center
04:24PM 40.6181 -114.3947 77° East 464 534 37,000  Level Salt Lake Center
04:25PM 40.6475 -114.2272 77° East 468 539 37,000 -840 Level Salt Lake Center
04:26PM 40.6753 -114.0611 78° East 468 539 35,400 -2,040 Descending Salt Lake Center
04:27PM 40.7036 -113.8947 77° East 467 537 32,900 -2,640 Descending Salt Lake Center
04:28PM 40.7258 -113.7250 80° East 472 543 30,000 -3,000 Descending Salt Lake Center
04:29PM 40.7264 -113.5436 90° East 493 567 26,900 -2,820 Descending Salt Lake Center
04:30PM 40.7258 -113.3758 90° East 463 533 24,300 -2,280 Descending Salt Lake Center
04:31PM 40.7258 -113.2292 90° East 406 467 22,300 -1,860 Descending Salt Lake Center
04:32PM 40.7244 -113.0700 91° East 365 420 20,500 -1,620 Descending Salt Lake Center
04:33PM 40.7236 -112.9400 90° East 357 411 19,000 -900 Descending Salt Lake Center
04:34PM 40.7278 -112.8542 86° East 351 404 19,000 -240 Level Salt Lake Center
04:34PM 40.7231 -112.8136 99° East 348 400 18,800 -1,320 Descending Salt Lake Center
04:35PM 40.7253 -112.7392 88° East 345 397 17,800 -1,320 Descending Salt Lake Center
04:35PM 40.7214 -112.6903 96° East 339 390 17,500 -1,500 Descending Salt Lake Center
04:36PM 40.7236 -112.6183 88° East 333 383 16,300 -1,560 Descending Salt Lake Center
04:36PM 40.7206 -112.5711 95° East 328 377 15,900 -1,920 Descending Salt Lake Center
04:37PM 40.7286 -112.4978 82° East 307 353 14,400 -2,100 Descending Salt Lake Center
04:37PM 40.7311 -112.4628 85° East 299 344 13,800 -1,380 Descending Salt Lake Center
04:38PM 40.7453 -112.3936 75° East 286 329 13,000 -900 Descending Salt Lake Center
04:38PM 40.7478 -112.3625 84° East 282 325 12,900 -1,140 Descending Salt Lake Center
04:39PM 40.7592 -112.2983 77° East 268 308 11,900 -1,800 Descending Salt Lake Center
04:39PM 40.7656 -112.2489 80° East 267 307 11,100 -2,040 Descending Salt Lake Center
04:40PM 40.7658 -112.2000 90° East 267 307 9,900 -1,800 Descending Salt Lake Center
04:40PM 40.7644 -112.1533 92° East 263 303 9,300 -900 Descending Salt Lake Center
04:41PM 40.7417 -112.1203 132° Southeast 248 285 9,000 -300 Descending Salt Lake Center
04:41PM 40.7200 -112.0900 133° Southeast 231 266 9,000  Level Salt Lake Center
04:42PM 40.6878 -112.0875 177° South 223 257 9,000  Level Salt Lake Center
04:42PM 40.6583 -112.0808 170° South 223 257 9,000  Level Salt Lake Center
04:43PM 40.6242 -112.0808 180° South 227 261 9,000 -120 Level Salt Lake Center
04:43PM 40.5997 -112.0592 146° Southeast 230 265 8,900 -900 Descending Salt Lake Center
04:44PM 40.5969 -112.0194 95° East 199 229 8,100 -1,800 Descending Salt Lake Center
04:44PM 40.6056 -111.9917 68° East 189 217 7,100 -2,040 Descending Salt Lake Center
04:45PM 40.6306 -111.9825 16° North 176 203 6,100 -2,160 Descending Salt Lake Center